Time;durP1;ratioP1;P1;durP2;ratioP2;P2;SDS_P1;SDS_P2;PMS_P1;PMS_P2;Temp;Humidity;BMP_temperature;BMP_pressure;BME280_temperature;BME280_humidity;BME280_pressure;Samples;Min_cycle;Max_cycle;Signal;HPM_P1;HPM_P2
2024/04/23 00:01:12;;;;;;;3.38;2.80;;;;;;;6.89;53.32;100569.59;11451757;25;20011;-67
2024/04/23 00:06:13;;;;;;;4.15;2.97;;;;;;;6.86;53.34;100564.47;11423060;25;19996;-67
2024/04/23 00:11:15;;;;;;;2.95;2.67;;;;;;;6.77;52.88;100559.75;11462327;25;20000;-66
2024/04/23 00:16:19;;;;;;;3.60;2.90;;;;;;;6.66;52.73;100553.28;11464707;25;20004;-67
2024/04/23 00:21:20;;;;;;;4.45;2.78;;;;;;;6.64;52.61;100554.34;11445167;25;20015;-66
2024/04/23 00:26:22;;;;;;;6.20;2.30;;;;;;;6.60;52.81;100548.38;11467781;25;20017;-67
2024/04/23 00:31:23;;;;;;;2.75;2.08;;;;;;;6.55;52.45;100550.44;11454141;25;20012;-67
2024/04/23 00:36:25;;;;;;;3.00;2.20;;;;;;;6.58;52.45;100552.06;11428557;25;20027;-68
2024/04/23 00:41:26;;;;;;;2.70;2.10;;;;;;;6.53;52.46;100536.44;11452096;25;20125;-67
2024/04/23 00:46:30;;;;;;;2.33;2.13;;;;;;;6.48;52.29;100538.53;11439203;25;20019;-68
2024/04/23 00:51:32;;;;;;;3.17;2.05;;;;;;;6.42;52.50;100538.88;11460284;25;20542;-67
2024/04/23 00:56:37;;;;;;;2.40;2.20;;;;;;;6.36;52.83;100527.75;11464612;25;20392;-68
2024/04/23 01:01:39;;;;;;;3.30;2.88;;;;;;;6.34;52.36;100529.59;11430160;25;20001;-67
2024/04/23 01:06:41;;;;;;;5.07;2.60;;;;;;;6.38;52.89;100527.66;11377213;25;20012;-65
2024/04/23 01:11:42;;;;;;;2.22;2.00;;;;;;;6.09;52.45;100489.69;11401773;25;20009;-65
2024/04/23 01:16:45;;;;;;;3.05;2.10;;;;;;;6.37;52.59;100528.56;11406330;25;20058;-66
2024/04/23 01:21:58;;;;;;;4.50;2.45;;;;;;;6.24;51.94;100525.78;11426994;25;20009;-65
2024/04/23 01:27:02;;;;;;;3.35;2.17;;;;;;;6.20;51.88;100534.84;11425847;25;20001;-66
2024/04/23 01:32:04;;;;;;;2.53;2.30;;;;;;;6.19;52.01;100533.16;11395294;25;20015;-65
2024/04/23 01:37:09;;;;;;;4.60;2.80;;;;;;;6.20;52.15;100526.94;11426664;25;20119;-66
2024/04/23 01:42:11;;;;;;;3.20;2.30;;;;;;;6.18;52.58;100523.50;11421115;25;20487;-66
2024/04/23 01:47:12;;;;;;;3.90;2.40;;;;;;;6.18;51.60;100521.72;11425777;25;20005;-67
2024/04/23 01:52:14;;;;;;;2.92;2.22;;;;;;;6.07;52.26;100515.34;11449949;25;20002;-66
2024/04/23 01:57:16;;;;;;;4.05;2.33;;;;;;;5.94;52.10;100497.50;11434934;25;20001;-66
2024/04/23 02:02:19;;;;;;;2.60;2.30;;;;;;;5.99;52.32;100506.06;11455827;25;20773;-66
2024/04/23 02:07:21;;;;;;;3.65;1.98;;;;;;;5.98;52.78;100507.00;11415900;25;19997;-67
2024/04/23 02:12:23;;;;;;;3.13;2.22;;;;;;;5.91;52.36;100513.53;11448126;25;20456;-67
2024/04/23 02:17:25;;;;;;;2.08;1.88;;;;;;;5.87;52.01;100512.03;11407937;25;19993;-67
2024/04/23 02:22:27;;;;;;;2.40;2.20;;;;;;;5.86;52.92;100515.59;11431707;25;20015;-67
2024/04/23 02:27:30;;;;;;;3.05;2.25;;;;;;;5.85;52.44;100511.25;11406992;25;20012;-67
2024/04/23 02:32:31;;;;;;;3.50;2.33;;;;;;;5.89;52.61;100498.72;11442477;25;20014;-67
2024/04/23 02:37:34;;;;;;;2.50;2.30;;;;;;;5.78;52.37;100486.09;11409744;25;20073;-67
2024/04/23 02:42:36;;;;;;;2.88;2.40;;;;;;;5.76;52.79;100499.41;11420102;25;20462;-67
2024/04/23 02:47:37;;;;;;;2.85;2.40;;;;;;;5.75;52.76;100492.44;11454364;25;20000;-67
2024/04/23 02:52:39;;;;;;;2.72;2.42;;;;;;;5.63;53.03;100493.97;11415715;25;20039;-66
2024/04/23 02:57:42;;;;;;;3.28;2.20;;;;;;;5.55;53.83;100484.78;11403953;25;20231;-65
2024/04/23 03:02:43;;;;;;;3.28;2.60;;;;;;;5.55;53.51;100487.41;11448448;25;20017;-66
2024/04/23 03:07:45;;;;;;;2.35;2.15;;;;;;;5.46;53.45;100492.28;11451691;25;20045;-66
2024/04/23 03:12:46;;;;;;;3.65;3.15;;;;;;;5.43;54.46;100486.31;11436878;25;20012;-65
2024/04/23 03:17:48;;;;;;;2.63;2.20;;;;;;;5.42;54.04;100484.59;11408843;25;20923;-66
2024/04/23 03:22:50;;;;;;;4.78;2.45;;;;;;;5.40;54.10;100486.47;11403009;25;20001;-65
2024/04/23 03:27:51;;;;;;;3.97;2.55;;;;;;;5.40;53.81;100481.19;11447626;25;19997;-67
2024/04/23 03:32:53;;;;;;;2.65;2.22;;;;;;;5.37;54.29;100489.28;11469391;25;20002;-67
2024/04/23 03:37:57;;;;;;;6.90;2.47;;;;;;;5.29;53.65;100481.78;11434675;25;20072;-66
2024/04/23 03:42:59;;;;;;;2.83;2.53;;;;;;;5.28;53.82;100483.59;11408907;25;20343;-65
2024/04/23 03:48:02;;;;;;;3.28;2.70;;;;;;;5.30;54.39;100486.97;11411121;25;20036;-67
2024/04/23 03:53:04;;;;;;;2.63;2.38;;;;;;;5.19;54.36;100489.34;11414251;25;20074;-67
2024/04/23 03:58:06;;;;;;;2.80;2.50;;;;;;;5.11;54.29;100478.38;11430050;25;20012;-67
2024/04/23 04:08:30;;;;;;;3.72;2.55;;;;;;;5.09;54.21;100488.16;11432893;25;20010;-67
2024/04/23 04:13:39;;;;;;;2.30;2.10;;;;;;;5.08;53.90;100492.56;11443965;25;20010;-65
2024/04/23 04:18:41;;;;;;;3.70;2.40;;;;;;;5.01;54.41;100485.06;11459652;25;20347;-66
2024/04/23 04:23:42;;;;;;;3.50;2.40;;;;;;;5.01;55.42;100492.97;11468405;25;20020;-66
2024/04/23 04:28:44;;;;;;;3.38;2.17;;;;;;;4.88;54.96;100492.78;11429301;25;20121;-67
2024/04/23 04:33:47;;;;;;;2.30;2.10;;;;;;;4.81;54.80;100489.63;11380774;25;20037;-66
2024/04/23 04:38:48;;;;;;;2.97;2.70;;;;;;;4.75;55.27;100489.94;11404314;25;20367;-68
2024/04/23 04:43:50;;;;;;;3.05;2.38;;;;;;;4.82;54.84;100491.34;11423045;25;20009;-68
2024/04/23 04:48:52;;;;;;;3.25;2.50;;;;;;;4.80;55.48;100498.44;11468386;25;20071;-67
2024/04/23 04:53:53;;;;;;;2.55;2.35;;;;;;;4.91;55.98;100501.38;11490939;25;20024;-67
2024/04/23 04:58:55;;;;;;;4.18;2.90;;;;;;;4.81;55.22;100488.78;11476825;25;19992;-65
2024/04/23 05:03:57;;;;;;;4.55;2.30;;;;;;;4.85;55.26;100506.13;11487435;25;20082;-66
2024/04/23 05:08:58;;;;;;;4.47;2.72;;;;;;;4.85;55.71;100501.72;11460016;25;20001;-67
2024/04/23 05:14:01;;;;;;;3.65;3.17;;;;;;;4.85;55.73;100506.13;11468447;25;20019;-67
2024/04/23 05:19:02;;;;;;;3.03;2.40;;;;;;;4.85;55.65;100501.72;11394624;25;20020;-67
2024/04/23 05:24:04;;;;;;;3.95;2.80;;;;;;;4.89;56.04;100497.97;11407458;25;20461;-66
2024/04/23 05:29:07;;;;;;;6.10;3.25;;;;;;;4.93;56.22;100488.97;11417883;25;20094;-67
2024/04/23 05:34:08;;;;;;;3.88;2.45;;;;;;;4.96;55.52;100499.34;11419054;25;19998;-68
2024/04/23 05:39:10;;;;;;;3.05;2.70;;;;;;;4.87;55.67;100481.38;11457252;25;20027;-68
2024/04/23 05:44:12;;;;;;;3.33;2.70;;;;;;;5.13;55.55;100502.88;11398895;25;20023;-68
2024/04/23 05:49:52;;;;;;;4.03;2.67;;;;;;;5.27;55.00;100508.28;11457571;25;20016;-66
2024/04/23 05:55:29;;;;;;;2.60;2.35;;;;;;;5.35;55.49;100507.00;11477007;25;20315;-66
2024/04/23 06:00:33;;;;;;;3.08;2.75;;;;;;;5.40;54.88;100513.72;11449863;25;20015;-67
2024/04/23 06:05:35;;;;;;;3.53;2.67;;;;;;;5.55;54.12;100521.75;11423504;25;19998;-66
2024/04/23 06:10:39;;;;;;;3.53;2.72;;;;;;;5.72;54.04;100507.59;11410225;25;20005;-68
2024/04/23 06:15:43;;;;;;;3.38;2.58;;;;;;;5.88;53.11;100511.06;11418063;25;19996;-66
2024/04/23 06:20:51;;;;;;;6.20;3.37;;;;;;;6.14;52.92;100516.69;11420342;25;20032;-65
2024/04/23 06:25:55;;;;;;;3.72;2.63;;;;;;;6.32;52.63;100509.47;11454304;25;20662;-67
2024/04/23 06:30:56;;;;;;;2.60;2.40;;;;;;;6.37;52.23;100500.34;11413752;25;20020;-66
2024/04/23 06:35:58;;;;;;;3.08;2.42;;;;;;;6.58;51.90;100502.66;11476380;25;20004;-66
2024/04/23 06:41:00;;;;;;;3.05;2.72;;;;;;;6.56;51.21;100501.91;11462176;25;19998;-65
2024/04/23 06:46:01;;;;;;;4.55;3.05;;;;;;;6.84;52.07;100495.78;11404960;25;20001;-66
2024/04/23 06:51:05;;;;;;;13.75;3.58;;;;;;;7.10;51.16;100487.19;11468184;25;19994;-65
2024/04/23 06:56:06;;;;;;;2.78;2.50;;;;;;;7.26;50.61;100482.63;11429374;25;20020;-67
2024/04/23 07:01:08;;;;;;;2.85;2.13;;;;;;;7.57;49.78;100492.13;11397836;25;20350;-65
2024/04/23 07:06:10;;;;;;;3.78;2.42;;;;;;;7.73;49.11;100476.09;11465018;25;20024;-64
2024/04/23 07:11:14;;;;;;;3.65;1.77;;;;;;;7.96;48.30;100484.34;11424112;25;20050;-65
2024/04/23 07:16:17;;;;;;;2.10;1.90;;;;;;;8.09;47.64;100476.41;11486212;25;20001;-66
2024/04/23 07:21:18;;;;;;;1.70;1.38;;;;;;;8.30;47.23;100479.41;11458765;25;20000;-66
2024/04/23 07:26:22;;;;;;;3.40;2.05;;;;;;;8.41;46.60;100478.72;11484002;25;20001;-66
2024/04/23 07:31:25;;;;;;;2.30;2.10;;;;;;;8.60;46.05;100486.28;11482379;25;19992;-65
2024/04/23 07:36:28;;;;;;;2.75;1.85;;;;;;;8.65;44.88;100465.59;11411521;25;20400;-65
2024/04/23 07:41:32;;;;;;;2.78;2.00;;;;;;;8.79;46.05;100469.94;11422850;25;19993;-66
2024/04/23 07:46:34;;;;;;;1.93;1.60;;;;;;;8.98;45.60;100469.53;11445500;25;20418;-66
2024/04/23 07:51:36;;;;;;;1.92;1.80;;;;;;;9.09;45.65;100461.63;11418513;25;20002;-66
2024/04/23 07:56:41;;;;;;;2.70;1.98;;;;;;;9.20;45.85;100464.38;11457048;25;19996;-65
2024/04/23 08:01:45;;;;;;;;;;;;;;;9.40;44.93;100463.88;11399599;25;20017;-66
2024/04/23 08:06:47;;;;;;;3.10;2.00;;;;;;;9.58;43.79;100456.38;11456511;25;19995;-65
2024/04/23 08:11:48;;;;;;;2.38;1.70;;;;;;;9.74;43.91;100467.59;11424433;25;20011;-65
2024/04/23 08:16:51;;;;;;;4.40;1.80;;;;;;;9.90;43.48;100468.16;11445384;25;20016;-66
2024/04/23 08:21:55;;;;;;;2.38;1.50;;;;;;;10.01;43.54;100453.22;11431344;25;20467;-64
2024/04/23 08:26:56;;;;;;;1.75;1.48;;;;;;;10.25;42.79;100448.72;11450630;25;20009;-66
2024/04/23 08:32:00;;;;;;;3.20;1.80;;;;;;;10.43;42.34;100419.03;11441136;25;20609;-65
2024/04/23 08:37:07;;;;;;;2.83;1.80;;;;;;;10.66;41.98;100443.00;11475001;25;20000;-65
2024/04/23 08:42:11;;;;;;;1.77;1.50;;;;;;;10.76;41.67;100428.00;11471111;25;20006;-64
2024/04/23 08:47:13;;;;;;;4.32;2.20;;;;;;;11.04;41.44;100420.50;11468282;25;20020;-65
2024/04/23 08:52:16;;;;;;;5.55;1.85;;;;;;;11.29;41.51;100409.56;11450053;25;20387;-65
2024/04/23 08:57:19;;;;;;;2.30;2.10;;;;;;;11.63;40.62;100414.81;11440453;25;20028;-65
2024/04/23 09:02:30;;;;;;;4.22;2.20;;;;;;;11.77;39.00;100415.47;11429185;25;19994;-65
2024/04/23 09:07:33;;;;;;;3.45;2.20;;;;;;;12.12;38.86;100411.72;11426227;25;20986;-66
2024/04/23 09:12:35;;;;;;;2.92;1.95;;;;;;;12.24;38.74;100407.16;11411212;25;20001;-66
2024/04/23 09:17:37;;;;;;;2.70;1.90;;;;;;;12.48;39.46;100388.22;11483056;25;20096;-65
2024/04/23 09:22:50;;;;;;;3.03;2.08;;;;;;;12.66;36.35;100391.94;11480360;25;20456;-65
2024/04/23 09:27:52;;;;;;;2.58;2.20;;;;;;;12.64;34.56;100396.56;11445528;25;19997;-66
2024/04/23 09:33:01;;;;;;;5.03;2.70;;;;;;;12.85;35.55;100388.50;11475468;25;20304;-67
2024/04/23 09:38:04;;;;;;;2.50;1.67;;;;;;;13.19;34.79;100388.16;11430995;25;20020;-64
2024/04/23 09:43:06;;;;;;;3.08;1.27;;;;;;;13.41;34.08;100372.91;11468375;25;20016;-66
2024/04/23 09:48:08;;;;;;;2.05;1.48;;;;;;;13.66;33.38;100371.53;11477570;25;20000;-66
2024/04/23 09:53:13;;;;;;;1.35;1.25;;;;;;;13.86;31.81;100371.53;11425954;25;20045;-66
2024/04/23 09:58:15;;;;;;;1.90;1.50;;;;;;;14.10;31.65;100361.19;11454909;25;20342;-66
2024/04/23 10:03:17;;;;;;;3.17;2.13;;;;;;;14.43;30.75;100342.94;11408666;25;20609;-66
2024/04/23 10:08:48;;;;;;;2.13;1.33;;;;;;;14.75;31.14;100341.69;11410655;25;20489;-64
2024/04/23 10:14:02;;;;;;;1.77;1.60;;;;;;;15.01;31.08;100335.63;11460162;25;20016;-65
2024/04/23 10:19:07;;;;;;;1.65;1.30;;;;;;;15.35;29.58;100326.94;11461076;25;20005;-62
2024/04/23 10:24:09;;;;;;;2.35;1.70;;;;;;;15.51;29.88;100319.06;11422695;25;20004;-63
2024/04/23 10:29:13;;;;;;;1.73;1.55;;;;;;;15.43;28.69;100318.97;11364331;25;20101;-64
2024/04/23 10:34:15;;;;;;;2.25;1.65;;;;;;;15.86;29.90;100317.34;11435122;25;20017;-64
2024/04/23 10:39:22;;;;;;;1.70;1.60;;;;;;;16.18;29.52;100315.03;11470106;25;20055;-61
2024/04/23 10:44:25;;;;;;;1.55;1.30;;;;;;;15.48;29.60;100299.75;11405951;25;20005;-65
2024/04/23 10:49:27;;;;;;;1.87;1.27;;;;;;;15.58;27.62;100299.66;11403406;25;20006;-62
2024/04/23 10:54:29;;;;;;;1.98;1.27;;;;;;;15.87;27.97;100292.19;11445662;25;20738;-62
2024/04/23 10:59:31;;;;;;;1.58;1.00;;;;;;;16.98;27.80;100276.28;11422034;25;20103;-64
2024/04/23 11:04:34;;;;;;;1.95;1.50;;;;;;;16.51;27.72;100281.13;11462102;25;20014;-63
2024/04/23 11:09:43;;;;;;;1.85;1.20;;;;;;;15.73;29.95;100284.69;11467674;25;20004;-65
2024/04/23 11:14:46;;;;;;;2.63;2.00;;;;;;;15.32;29.45;100257.53;11468549;25;19998;-64
2024/04/23 11:19:56;;;;;;;2.28;1.15;;;;;;;15.43;29.03;100249.22;11440006;25;20012;-64
2024/04/23 11:25:04;;;;;;;1.10;0.93;;;;;;;16.90;27.50;100253.75;11435107;25;20001;-65
2024/04/23 11:30:13;;;;;;;1.00;0.73;;;;;;;17.07;26.54;100241.19;11461945;25;20417;-64
2024/04/23 11:35:19;;;;;;;2.15;1.20;;;;;;;17.61;25.62;100229.06;11461694;25;20647;-66
2024/04/23 11:40:21;;;;;;;1.50;1.33;;;;;;;17.95;25.00;100220.78;11491034;25;20008;-65
2024/04/23 11:45:22;;;;;;;1.75;1.27;;;;;;;18.45;24.02;100215.22;11462312;25;20028;-65
2024/04/23 11:50:24;;;;;;;1.13;0.80;;;;;;;17.92;24.44;100198.75;11483157;25;19996;-64
2024/04/23 11:55:26;;;;;;;1.45;0.80;;;;;;;17.97;25.89;100199.06;11443582;25;20024;-66
2024/04/23 12:00:28;;;;;;;1.27;0.90;;;;;;;17.90;24.74;100185.47;11449487;25;19997;-65
2024/04/23 12:05:30;;;;;;;1.73;0.88;;;;;;;18.31;24.08;100182.59;11461266;25;20674;-65
2024/04/23 12:10:36;;;;;;;1.00;0.77;;;;;;;18.68;24.33;100178.34;11472884;25;20082;-65
2024/04/23 12:15:37;;;;;;;2.15;1.17;;;;;;;17.94;24.12;100169.78;11454213;25;20005;-66
2024/04/23 12:20:39;;;;;;;2.35;0.80;;;;;;;18.43;24.86;100157.97;11461955;25;20379;-66
2024/04/23 12:25:41;;;;;;;1.60;0.77;;;;;;;18.17;24.55;100169.88;11433682;25;20117;-65
2024/04/23 12:30:43;;;;;;;2.05;1.05;;;;;;;18.67;24.70;100173.16;11441706;25;20017;-65
2024/04/23 12:35:44;;;;;;;1.67;1.33;;;;;;;18.82;24.50;100160.56;11422602;25;20083;-65
2024/04/23 12:40:46;;;;;;;1.48;1.13;;;;;;;18.99;23.87;100158.63;11452027;25;20106;-65
2024/04/23 12:45:47;;;;;;;2.80;1.05;;;;;;;18.51;24.58;100136.34;11476135;25;20000;-65
2024/04/23 12:50:49;;;;;;;1.23;1.08;;;;;;;18.58;23.44;100131.91;11460671;25;20011;-65
2024/04/23 12:55:52;;;;;;;1.95;0.90;;;;;;;18.58;23.92;100129.22;11467173;25;19997;-66
2024/04/23 13:00:53;;;;;;;0.80;0.63;;;;;;;18.42;22.87;100107.78;11474887;25;20110;-66
2024/04/23 13:05:57;;;;;;;1.52;0.90;;;;;;;18.09;24.85;100091.78;11466938;25;20000;-66
2024/04/23 13:10:58;;;;;;;1.83;0.83;;;;;;;18.08;24.33;100100.91;11453269;25;20006;-66
2024/04/23 13:16:00;;;;;;;1.20;1.00;;;;;;;17.37;25.66;100088.19;11431131;25;20001;-66
2024/04/23 13:21:03;;;;;;;2.47;1.15;;;;;;;17.63;24.51;100095.16;11421064;25;20001;-65
2024/04/23 13:26:05;;;;;;;1.88;1.25;;;;;;;17.62;25.59;100080.03;11468228;25;20534;-65
2024/04/23 13:31:07;;;;;;;1.17;0.98;;;;;;;17.62;24.68;100082.72;11459135;25;20004;-64
2024/04/23 13:36:12;;;;;;;1.65;1.20;;;;;;;16.76;25.62;100074.28;11440196;25;20000;-65
2024/04/23 13:41:15;;;;;;;1.25;1.08;;;;;;;16.91;25.52;100067.22;11434313;25;20310;-64
2024/04/23 13:46:17;;;;;;;1.20;1.10;;;;;;;16.94;25.51;100074.97;11462979;25;20007;-66
2024/04/23 13:51:18;;;;;;;3.08;1.20;;;;;;;17.10;24.43;100065.22;11451095;25;20469;-63
2024/04/23 13:56:20;;;;;;;1.20;0.93;;;;;;;17.02;25.04;100063.34;11398485;25;20034;-65
2024/04/23 14:01:23;;;;;;;1.95;1.13;;;;;;;16.72;25.74;100060.34;11444869;25;20000;-66
2024/04/23 14:06:25;;;;;;;1.40;1.30;;;;;;;15.77;26.38;100019.53;11480989;25;20007;-65
2024/04/23 14:11:27;;;;;;;2.65;1.50;;;;;;;16.06;26.40;100041.47;11415967;25;20120;-63
2024/04/23 14:16:29;;;;;;;3.38;1.10;;;;;;;16.08;26.66;100054.72;11443858;25;19997;-66
2024/04/23 14:21:49;;;;;;;1.38;1.17;;;;;;;16.02;26.23;100041.97;11440473;25;20735;-65
2024/04/23 14:26:51;;;;;;;2.55;1.30;;;;;;;15.97;25.93;100042.44;11469249;25;20011;-67
2024/04/23 14:31:53;;;;;;;1.65;1.45;;;;;;;15.60;26.50;100032.03;11426052;25;20453;-68
2024/04/23 14:36:54;;;;;;;2.72;1.23;;;;;;;15.52;26.59;100032.84;11430324;25;20023;-65
2024/04/23 14:41:57;;;;;;;2.15;1.17;;;;;;;15.52;27.83;100022.13;11453318;25;20001;-66
2024/04/23 14:46:58;;;;;;;2.47;1.60;;;;;;;15.42;27.38;100016.91;11475948;25;20612;-67
2024/04/23 14:52:01;;;;;;;3.30;1.63;;;;;;;15.29;26.85;100005.78;11450684;25;20008;-65
2024/04/23 14:57:02;;;;;;;3.33;1.25;;;;;;;15.02;27.48;100010.31;11398390;25;20153;-66
2024/04/23 15:02:05;;;;;;;2.10;1.40;;;;;;;14.97;27.39;100007.28;11411355;25;20070;-66
2024/04/23 15:07:07;;;;;;;1.52;1.42;;;;;;;14.97;26.95;99991.19;11429279;25;20032;-66
2024/04/23 15:12:09;;;;;;;1.55;1.35;;;;;;;14.89;27.53;99996.50;11432215;25;20351;-65
2024/04/23 15:17:12;;;;;;;1.80;1.35;;;;;;;14.66;28.27;99994.34;11453890;25;20495;-65
2024/04/23 15:22:14;;;;;;;2.17;1.40;;;;;;;14.75;27.68;99993.38;11400488;25;20746;-63
2024/04/23 15:27:16;;;;;;;2.10;1.50;;;;;;;14.72;27.70;99983.00;11457957;25;20037;-65
2024/04/23 15:32:17;;;;;;;2.53;1.55;;;;;;;14.59;27.44;99980.72;11473553;25;20011;-67
2024/04/23 15:37:19;;;;;;;1.92;1.50;;;;;;;14.30;27.44;99971.09;11455629;25;20007;-65
2024/04/23 15:42:22;;;;;;;2.63;1.65;;;;;;;14.26;28.17;99979.59;11402708;25;19997;-65
2024/04/23 15:47:23;;;;;;;1.85;1.27;;;;;;;14.24;27.50;99974.38;11434541;25;20017;-64
2024/04/23 15:52:25;;;;;;;2.80;1.73;;;;;;;13.99;28.15;99965.31;11437609;25;20001;-64
2024/04/23 15:57:26;;;;;;;1.67;1.23;;;;;;;14.03;29.18;99960.50;11435437;25;20039;-64
2024/04/23 16:02:31;;;;;;;2.30;1.45;;;;;;;14.09;29.25;99960.69;11366454;25;20065;-64
2024/04/23 16:07:35;;;;;;;2.17;1.35;;;;;;;14.03;29.07;99955.97;11393528;25;20013;-64
2024/04/23 16:12:38;;;;;;;1.15;1.05;;;;;;;13.97;28.82;99951.22;11395178;25;20120;-63
2024/04/23 16:17:41;;;;;;;2.67;1.92;;;;;;;13.90;28.43;99952.81;11393850;25;20012;-64
2024/04/23 16:22:43;;;;;;;1.77;1.45;;;;;;;13.78;28.16;99939.69;11465125;25;20607;-65
2024/04/23 16:27:45;;;;;;;2.10;1.48;;;;;;;13.66;28.31;99938.25;11441698;25;20075;-64
2024/04/23 16:32:46;;;;;;;1.65;1.52;;;;;;;13.66;28.50;99943.59;11422341;25;19996;-65
2024/04/23 16:37:51;;;;;;;1.70;1.20;;;;;;;13.58;28.70;99940.81;11367993;25;20099;-65
2024/04/23 16:42:53;;;;;;;2.67;1.40;;;;;;;13.57;29.02;99936.44;11440438;25;20018;-65
2024/04/23 16:47:57;;;;;;;1.98;1.30;;;;;;;13.51;29.27;99923.69;11434972;25;20019;-65
2024/04/23 16:52:59;;;;;;;2.00;1.23;;;;;;;13.40;28.45;99906.84;11470168;25;20001;-65
2024/04/23 16:58:00;;;;;;;3.22;1.25;;;;;;;13.51;29.88;99923.69;11408885;25;19997;-66
2024/04/23 17:03:02;;;;;;;2.00;1.20;;;;;;;13.48;29.43;99923.97;11404125;25;20005;-65
2024/04/23 17:08:05;;;;;;;2.20;1.17;;;;;;;13.48;29.49;99923.97;11458619;25;20000;-65
2024/04/23 17:13:07;;;;;;;1.30;1.20;;;;;;;13.49;29.16;99920.31;11410477;25;20008;-65
2024/04/23 17:18:09;;;;;;;3.05;1.60;;;;;;;13.46;29.92;99917.94;11452976;25;22003;-65
2024/04/23 17:23:16;;;;;;;1.77;1.30;;;;;;;13.40;29.39;99922.06;11436321;25;20001;-65
2024/04/23 17:28:18;;;;;;;1.60;0.90;;;;;;;13.42;30.29;99918.25;11461899;25;20691;-64
2024/04/23 17:33:22;;;;;;;2.53;1.75;;;;;;;13.35;30.40;99909.16;11385645;25;20454;-64
2024/04/23 17:38:25;;;;;;;1.70;1.33;;;;;;;13.34;30.27;99906.63;11368895;25;20088;-65
2024/04/23 17:43:28;;;;;;;2.58;1.23;;;;;;;13.30;30.56;99911.41;11429071;25;20124;-64
2024/04/23 17:48:36;;;;;;;2.28;1.10;;;;;;;13.23;31.12;99910.31;11458071;25;20080;-64
2024/04/23 17:53:38;;;;;;;2.03;1.33;;;;;;;13.19;31.15;99903.59;11438444;25;20057;-63
2024/04/23 17:58:39;;;;;;;2.13;1.20;;;;;;;13.06;30.66;99894.09;11402126;25;20098;-63
2024/04/23 18:03:42;;;;;;;2.17;1.52;;;;;;;13.08;31.66;99900.13;11456862;25;20020;-63
2024/04/23 18:08:44;;;;;;;4.50;2.78;;;;;;;13.07;31.20;99910.94;11422040;25;20072;-63
2024/04/23 18:13:47;;;;;;;2.85;1.48;;;;;;;13.07;31.93;99910.94;11393752;25;20405;-62
2024/04/23 18:18:53;;;;;;;2.30;2.10;;;;;;;12.95;31.34;99902.28;11378474;25;20512;-63
2024/04/23 18:23:54;;;;;;;2.35;1.90;;;;;;;12.98;31.50;99904.66;11421299;25;20045;-64
2024/04/23 18:28:56;;;;;;;2.58;1.42;;;;;;;12.96;31.74;99906.66;11453374;25;20004;-63
2024/04/23 18:33:57;;;;;;;2.20;1.40;;;;;;;12.93;30.87;99904.28;11415052;25;20352;-62
2024/04/23 18:39:00;;;;;;;3.05;1.98;;;;;;;12.88;31.21;99907.38;11413009;25;20005;-64
2024/04/23 18:44:02;;;;;;;2.05;1.70;;;;;;;12.88;32.61;99911.88;11416269;25;20000;-64
2024/04/23 18:49:04;;;;;;;2.05;1.50;;;;;;;12.68;33.76;99911.09;11480116;25;20022;-62
2024/04/23 18:54:06;;;;;;;2.00;1.10;;;;;;;12.48;33.09;99910.34;11377313;25;20001;-63
2024/04/23 18:59:08;;;;;;;2.75;1.27;;;;;;;12.06;33.03;99911.50;11324843;25;20010;-64
2024/04/23 19:04:09;;;;;;;1.60;1.20;;;;;;;12.00;33.24;99904.06;11442990;25;19992;-64
2024/04/23 19:09:11;;;;;;;3.63;1.80;;;;;;;12.26;33.53;99909.66;11399888;25;20025;-63
2024/04/23 19:14:12;;;;;;;2.75;1.98;;;;;;;12.29;33.59;99904.03;11421950;25;20524;-64
2024/04/23 19:19:19;;;;;;;2.10;1.48;;;;;;;12.23;34.67;99896.59;11451314;25;20009;-62
2024/04/23 19:24:20;;;;;;;2.17;1.73;;;;;;;12.22;34.40;99905.59;11449693;25;19997;-64
2024/04/23 19:29:23;;;;;;;2.30;1.30;;;;;;;12.27;34.46;99911.34;11472818;25;20005;-63
2024/04/23 19:34:24;;;;;;;2.42;1.52;;;;;;;12.25;36.38;99915.13;11427281;25;20012;-63
2024/04/23 19:39:27;;;;;;;2.10;1.60;;;;;;;12.14;35.15;99902.78;11396455;25;20159;-62
2024/04/23 19:44:29;;;;;;;1.52;1.25;;;;;;;12.07;35.39;99907.00;11470457;25;20079;-62
2024/04/23 19:49:32;;;;;;;2.53;1.77;;;;;;;12.08;36.78;99919.38;11486771;25;20312;-63
2024/04/23 19:54:34;;;;;;;3.00;2.20;;;;;;;11.96;35.53;99914.16;11461635;25;19997;-63
2024/04/23 19:59:35;;;;;;;2.78;1.50;;;;;;;11.87;36.29;99912.31;11481002;25;20806;-65
2024/04/23 20:04:37;;;;;;;2.42;1.40;;;;;;;11.81;35.79;99902.22;11413415;25;20012;-63
2024/04/23 20:09:41;;;;;;;3.92;2.38;;;;;;;11.34;36.16;99904.69;11492211;25;20003;-64
2024/04/23 20:14:45;;;;;;;;;;;;;;;11.40;37.17;99904.16;11410277;25;20013;-63
2024/04/23 20:19:46;;;;;;;3.00;2.70;;;;;;;11.36;36.52;99908.06;11431790;25;20360;-63
2024/04/23 20:24:48;;;;;;;2.78;2.22;;;;;;;11.24;36.92;99894.00;11453384;25;20013;-64
2024/04/23 20:29:51;;;;;;;3.92;2.67;;;;;;;11.08;36.51;99897.19;11425640;25;20420;-64
2024/04/23 20:34:52;;;;;;;3.63;2.80;;;;;;;10.57;37.31;99897.13;11462536;25;20044;-62
2024/04/23 20:39:54;;;;;;;3.78;3.10;;;;;;;10.56;37.55;99892.78;11446422;25;20121;-65
2024/04/23 20:44:56;;;;;;;3.85;3.00;;;;;;;10.50;37.09;99890.63;11459272;25;20472;-62
2024/04/23 20:49:57;;;;;;;4.78;4.35;;;;;;;10.64;36.84;99885.94;11435285;25;20072;-63
2024/04/23 20:55:02;;;;;;;3.90;3.60;;;;;;;10.65;37.50;99887.63;11403830;25;20071;-62
2024/04/23 21:00:04;;;;;;;;;;;;;;;10.77;37.42;99878.59;11384968;25;20123;-63
2024/04/23 21:05:06;;;;;;;4.25;3.53;;;;;;;10.77;37.42;99881.25;11421477;25;19923;-62
2024/04/23 21:10:08;;;;;;;4.45;3.63;;;;;;;10.55;37.52;99871.59;11433420;25;20004;-62
2024/04/23 21:15:10;;;;;;;4.45;3.75;;;;;;;10.69;37.46;99870.41;11460710;25;19992;-64
2024/04/23 21:20:11;;;;;;;4.00;3.60;;;;;;;10.64;37.64;99872.63;11424461;25;20075;-63
2024/04/23 21:25:13;;;;;;;4.47;4.07;;;;;;;10.59;38.78;99867.72;11444563;25;20417;-63
2024/04/23 21:30:15;;;;;;;4.43;4.03;;;;;;;10.61;38.25;99849.78;11397847;25;20070;-63
2024/04/23 21:35:17;;;;;;;5.05;4.65;;;;;;;10.63;39.12;99858.50;11391177;25;20067;-63
2024/04/23 21:40:21;;;;;;;5.15;4.60;;;;;;;10.62;39.10;99862.13;11452565;25;20163;-64
2024/04/23 21:45:26;;;;;;;6.53;4.88;;;;;;;10.58;38.59;99866.88;11420600;25;20043;-63
2024/04/23 21:50:27;;;;;;;5.07;4.57;;;;;;;10.58;40.03;99866.88;11455990;25;20027;-64
2024/04/23 21:55:29;;;;;;;5.38;4.90;;;;;;;10.50;39.39;99858.72;11438058;25;20463;-62
2024/04/23 22:00:30;;;;;;;4.88;4.50;;;;;;;10.46;40.33;99865.25;11440882;25;20005;-64
2024/04/23 22:05:33;;;;;;;5.70;5.20;;;;;;;10.31;40.03;99847.94;11435591;25;20455;-62
2024/04/23 22:10:35;;;;;;;5.70;5.18;;;;;;;10.35;40.60;99852.88;11389810;25;20073;-62
2024/04/23 22:15:36;;;;;;;6.00;5.30;;;;;;;10.34;40.64;99853.03;11446114;25;20529;-62
2024/04/23 22:20:44;;;;;;;5.35;4.85;;;;;;;10.32;40.80;99839.00;11436864;25;20628;-63
2024/04/23 22:25:46;;;;;;;5.57;5.07;;;;;;;10.27;41.04;99842.03;11395562;25;20309;-62
2024/04/23 22:30:47;;;;;;;6.00;5.40;;;;;;;10.17;41.30;99826.00;11389255;25;20054;-62
2024/04/23 22:35:49;;;;;;;6.50;5.90;;;;;;;10.17;42.02;99830.50;11442368;25;20575;-63
2024/04/23 22:40:51;;;;;;;7.93;5.57;;;;;;;10.09;41.75;99824.00;11426499;25;19997;-62
2024/04/23 22:45:53;;;;;;;6.38;5.63;;;;;;;10.05;41.74;99816.44;11422057;25;20013;-64
2024/04/23 22:50:55;;;;;;;6.07;5.57;;;;;;;10.02;42.59;99822.84;11423261;25;19997;-63
2024/04/23 22:55:57;;;;;;;6.15;5.55;;;;;;;9.86;42.47;99812.69;11372348;25;20952;-63
2024/04/23 23:01:01;;;;;;;5.45;4.85;;;;;;;9.79;42.67;99813.31;11399487;25;20021;-62
2024/04/23 23:06:03;;;;;;;6.07;5.55;;;;;;;9.77;43.87;99802.81;11385051;25;20155;-63
2024/04/23 23:11:05;;;;;;;6.60;4.63;;;;;;;9.78;42.86;99808.97;11408586;25;20633;-65
2024/04/23 23:16:07;;;;;;;6.88;5.10;;;;;;;9.74;43.73;99805.72;11422831;25;20006;-63
2024/04/23 23:21:10;;;;;;;5.55;5.05;;;;;;;9.67;43.08;99791.28;11418190;25;20477;-62
2024/04/23 23:26:11;;;;;;;5.53;5.03;;;;;;;9.56;42.80;99784.19;11366778;25;20006;-64
2024/04/23 23:31:13;;;;;;;5.50;5.00;;;;;;;9.45;43.43;99774.47;11435345;25;20026;-63